createdAt,value
2022-10-19T00:00:49.360Z,58.61
2022-10-19T00:03:18.283Z,58.58
2022-10-19T00:05:47.220Z,58.43
2022-10-19T00:08:13.593Z,58.38
2022-10-19T00:10:40.069Z,58.64
2022-10-19T00:13:06.441Z,58.41
2022-10-19T00:15:32.804Z,58.62
2022-10-19T00:17:59.187Z,58.90
2022-10-19T00:20:25.552Z,58.67
2022-10-19T00:22:51.932Z,58.58
2022-10-19T00:25:18.296Z,58.54
2022-10-19T00:27:44.670Z,58.59
2022-10-19T00:30:11.032Z,58.57
2022-10-19T00:32:37.405Z,58.74
2022-10-19T00:35:03.780Z,58.63
2022-10-19T00:37:30.169Z,58.54
2022-10-19T00:39:56.552Z,58.54
2022-10-19T00:42:22.937Z,58.80
2022-10-19T00:44:49.325Z,58.45
2022-10-19T00:47:15.712Z,58.60
2022-10-19T00:49:42.080Z,58.54
2022-10-19T00:52:08.459Z,58.66
2022-10-19T00:54:34.827Z,58.48
2022-10-19T00:57:01.187Z,58.76
2022-10-19T00:59:27.556Z,58.70
2022-10-19T01:01:53.943Z,58.56
2022-10-19T01:04:20.333Z,58.83
2022-10-19T01:06:46.757Z,58.66
2022-10-19T01:09:13.249Z,58.80
2022-10-19T01:11:39.655Z,58.53
2022-10-19T01:14:06.029Z,58.68
2022-10-19T01:16:32.402Z,58.91
2022-10-19T01:18:58.796Z,58.45
2022-10-19T01:21:25.183Z,58.78
2022-10-19T01:23:51.542Z,58.55
2022-10-19T01:26:17.932Z,58.95
2022-10-19T01:28:44.344Z,58.65
2022-10-19T01:31:10.758Z,58.86
2022-10-19T01:33:37.125Z,59.00
2022-10-19T01:36:03.499Z,58.83
2022-10-19T01:38:29.860Z,58.51
2022-10-19T01:40:56.233Z,58.81
2022-10-19T01:43:22.617Z,58.81
2022-10-19T01:45:49.009Z,58.93
2022-10-19T01:48:15.389Z,58.92
2022-10-19T01:50:41.775Z,58.96
2022-10-19T01:53:08.164Z,58.98
2022-10-19T01:55:34.535Z,58.61
2022-10-19T01:58:00.901Z,58.91
2022-10-19T02:00:27.268Z,58.98
2022-10-19T02:02:53.652Z,59.03
2022-10-19T02:05:20.044Z,59.12
2022-10-19T02:07:46.408Z,59.18
2022-10-19T02:12:59.085Z,59.28
2022-10-19T02:15:25.585Z,59.34
2022-10-19T02:17:51.969Z,58.95
2022-10-19T02:20:18.342Z,58.88
2022-10-19T02:22:44.721Z,59.18
2022-10-19T02:25:11.090Z,59.34
2022-10-19T02:27:37.451Z,58.75
2022-10-19T02:30:03.825Z,58.76
2022-10-19T02:32:30.340Z,58.67
2022-10-19T02:34:56.860Z,58.40
2022-10-19T02:37:25.420Z,58.78
2022-10-19T02:39:52.169Z,58.52
2022-10-19T02:42:18.545Z,58.54
2022-10-19T02:44:44.908Z,58.91
2022-10-19T02:47:11.276Z,58.90
2022-10-19T02:49:37.648Z,58.68
2022-10-19T02:52:04.011Z,58.88
2022-10-19T02:54:30.486Z,58.71
2022-10-19T02:56:56.852Z,59.05
2022-10-19T02:59:23.222Z,59.05
2022-10-19T03:01:49.609Z,59.08
2022-10-19T03:04:15.974Z,58.74
2022-10-19T03:06:42.340Z,58.77
2022-10-19T03:09:08.710Z,58.90
2022-10-19T03:11:35.094Z,58.89
2022-10-19T03:14:01.459Z,58.83
2022-10-19T03:16:27.833Z,58.60
2022-10-19T03:18:54.209Z,58.63
2022-10-19T03:21:20.575Z,58.91
2022-10-19T03:23:46.955Z,58.42
2022-10-19T03:26:13.348Z,58.53
2022-10-19T03:28:39.767Z,58.74
2022-10-19T03:31:06.151Z,58.85
2022-10-19T03:33:32.531Z,59.08
2022-10-19T03:35:58.906Z,58.76
2022-10-19T03:38:25.297Z,59.04
2022-10-19T03:40:51.682Z,59.07
2022-10-19T03:43:18.051Z,58.48
2022-10-19T03:45:44.423Z,59.01
2022-10-19T03:48:10.793Z,59.03
2022-10-19T03:50:37.178Z,58.74
2022-10-19T03:55:49.837Z,58.83
2022-10-19T03:58:16.201Z,58.32
2022-10-19T04:00:42.607Z,58.51
2022-10-19T04:03:08.994Z,58.69
2022-10-19T04:05:35.360Z,58.32
2022-10-19T04:08:01.733Z,58.65
2022-10-19T04:10:28.099Z,58.54
2022-10-19T04:12:54.459Z,58.36
2022-10-19T04:15:20.830Z,58.92
2022-10-19T04:17:48.697Z,58.80
2022-10-19T04:20:15.135Z,58.67
2022-10-19T04:22:41.524Z,59.04
2022-10-19T04:25:07.898Z,58.56
2022-10-19T04:27:34.409Z,58.81
2022-10-19T04:30:01.000Z,58.48
2022-10-19T04:32:27.369Z,58.21
2022-10-19T04:34:53.754Z,58.48
2022-10-19T04:37:20.122Z,58.23
2022-10-19T04:39:46.494Z,58.64
2022-10-19T04:42:12.876Z,58.64
2022-10-19T04:44:39.239Z,58.62
2022-10-19T04:47:05.626Z,58.79
2022-10-19T04:49:31.992Z,58.53
2022-10-19T04:51:58.368Z,58.43
2022-10-19T04:54:24.754Z,58.96
2022-10-19T04:56:51.144Z,58.52
2022-10-19T04:59:17.523Z,58.28
2022-10-19T05:01:46.506Z,58.36
2022-10-19T05:04:13.739Z,58.91
2022-10-19T05:06:40.109Z,58.70
2022-10-19T05:09:06.493Z,59.05
2022-10-19T05:11:32.878Z,58.87
2022-10-19T05:13:59.250Z,58.98
2022-10-19T05:16:25.620Z,59.10
2022-10-19T05:18:51.982Z,59.26
2022-10-19T05:21:18.349Z,59.50
2022-10-19T05:23:44.721Z,59.42
2022-10-19T05:26:11.113Z,59.42
2022-10-19T05:28:37.521Z,59.33
2022-10-19T05:31:03.923Z,59.16
2022-10-19T05:33:30.295Z,59.11
2022-10-19T05:35:56.666Z,58.79
2022-10-19T05:38:23.029Z,58.48
2022-10-19T05:40:52.938Z,58.71
2022-10-19T05:43:20.124Z,58.41
2022-10-19T05:45:46.476Z,58.32
2022-10-19T05:48:12.841Z,58.40
2022-10-19T05:50:39.244Z,58.34
2022-10-19T05:53:05.611Z,58.14
2022-10-19T05:55:31.977Z,58.48
2022-10-19T05:57:58.354Z,58.22
2022-10-19T06:00:24.716Z,58.37
2022-10-19T06:02:52.929Z,57.76
2022-10-19T06:05:22.079Z,57.72
2022-10-19T06:07:48.448Z,58.39
2022-10-19T06:10:14.825Z,58.25
2022-10-19T06:12:41.185Z,58.16
2022-10-19T06:15:07.569Z,58.45
2022-10-19T06:17:34.300Z,58.12
2022-10-19T06:20:00.867Z,57.77
2022-10-19T06:22:27.224Z,57.88
2022-10-19T06:24:53.602Z,57.94
2022-10-19T06:27:20.018Z,58.02
2022-10-19T06:29:46.434Z,57.92
2022-10-19T06:32:12.800Z,57.64
2022-10-19T06:34:39.194Z,58.02
2022-10-19T06:37:05.559Z,58.18
2022-10-19T06:39:31.931Z,58.05
2022-10-19T06:41:58.295Z,58.14
2022-10-19T06:44:24.663Z,58.11
2022-10-19T06:46:51.028Z,57.81
2022-10-19T06:49:17.397Z,58.06
2022-10-19T06:51:43.760Z,58.05
2022-10-19T06:54:10.130Z,58.24
2022-10-19T06:56:36.554Z,57.90
2022-10-19T06:59:02.937Z,58.02
2022-10-19T07:01:29.381Z,57.65
2022-10-19T07:03:55.830Z,57.71
2022-10-19T07:06:22.472Z,58.01
2022-10-19T07:08:48.849Z,57.88
2022-10-19T07:11:15.222Z,57.89
2022-10-19T07:13:41.587Z,57.86
2022-10-19T07:16:07.951Z,57.96
2022-10-19T07:18:34.316Z,57.99
2022-10-19T07:21:00.683Z,57.75
2022-10-19T07:23:27.056Z,57.80
2022-10-19T07:25:53.418Z,57.69
2022-10-19T07:28:19.780Z,57.75
2022-10-19T07:30:46.154Z,57.80
2022-10-19T07:33:12.542Z,57.92
2022-10-19T07:35:38.921Z,57.79
2022-10-19T07:38:05.299Z,57.65
2022-10-19T07:40:31.672Z,58.03
2022-10-19T07:42:58.031Z,58.02
2022-10-19T07:45:24.403Z,57.75
2022-10-19T07:47:50.761Z,57.83
2022-10-19T07:50:17.121Z,57.74
2022-10-19T07:52:43.740Z,57.95
2022-10-19T07:55:10.274Z,58.25
2022-10-19T07:57:36.644Z,58.53
2022-10-19T08:00:03.077Z,58.52
2022-10-19T08:02:39.420Z,58.55
2022-10-19T08:05:16.235Z,58.46
2022-10-19T08:07:42.829Z,58.11
2022-10-19T08:10:09.198Z,58.29
2022-10-19T08:12:35.935Z,58.36
2022-10-19T08:15:02.589Z,58.34
2022-10-19T08:17:28.957Z,58.32
2022-10-19T08:19:55.343Z,58.21
2022-10-19T08:22:21.718Z,58.38
2022-10-19T08:24:48.095Z,58.31
2022-10-19T08:27:14.474Z,58.01
2022-10-19T08:29:40.862Z,58.28
2022-10-19T08:32:07.219Z,58.23
2022-10-19T08:34:33.575Z,58.43
2022-10-19T08:36:59.958Z,58.38
2022-10-19T08:39:26.329Z,58.34
2022-10-19T08:41:52.711Z,58.27
2022-10-19T08:44:19.314Z,58.28
2022-10-19T08:46:45.746Z,58.55
2022-10-19T08:49:12.160Z,58.25
2022-10-19T08:51:38.536Z,58.17
2022-10-19T08:54:04.917Z,58.30
2022-10-19T08:56:50.903Z,58.27
2022-10-19T08:59:17.647Z,58.14
2022-10-19T09:01:44.029Z,57.87
2022-10-19T09:04:10.405Z,58.31
2022-10-19T09:06:36.769Z,58.26
2022-10-19T09:09:03.204Z,58.62
2022-10-19T09:11:29.637Z,58.54
2022-10-19T09:14:04.858Z,58.48
2022-10-19T09:16:31.953Z,58.38
2022-10-19T09:18:58.337Z,58.16
2022-10-19T09:21:31.012Z,58.39
2022-10-19T09:24:04.313Z,57.98
2022-10-19T09:26:30.685Z,58.27
2022-10-19T09:28:57.070Z,58.04
2022-10-19T09:31:23.444Z,58.00
2022-10-19T09:33:49.820Z,57.99
2022-10-19T09:36:22.800Z,57.87
2022-10-19T09:38:54.202Z,57.59
2022-10-19T09:41:20.575Z,57.63
2022-10-19T09:43:46.945Z,57.64
2022-10-19T09:46:19.843Z,57.46
2022-10-19T09:48:46.611Z,57.48
2022-10-19T09:51:12.974Z,57.60
2022-10-19T09:53:39.351Z,57.23
2022-10-19T09:56:06.108Z,57.29
2022-10-19T09:58:33.323Z,57.43
2022-10-19T10:00:59.869Z,57.75
2022-10-19T10:03:26.257Z,57.39
2022-10-19T10:05:52.626Z,57.43
2022-10-19T10:08:18.999Z,57.49
2022-10-19T10:10:45.369Z,57.48
2022-10-19T10:13:11.743Z,57.43
2022-10-19T10:15:38.129Z,57.70
2022-10-19T10:18:04.497Z,57.89
2022-10-19T10:20:30.880Z,57.73
2022-10-19T10:22:57.253Z,57.66
2022-10-19T10:25:23.621Z,58.04
2022-10-19T10:27:50.007Z,57.61
2022-10-19T10:30:16.425Z,57.29
2022-10-19T10:32:44.523Z,57.42
2022-10-19T10:35:14.307Z,58.03
2022-10-19T10:37:40.677Z,58.35
2022-10-19T10:40:07.070Z,58.38
2022-10-19T10:42:33.683Z,59.37
2022-10-19T10:45:00.307Z,59.62
2022-10-19T10:47:26.690Z,59.65
2022-10-19T10:49:53.077Z,61.93
2022-10-19T10:52:19.476Z,63.42
2022-10-19T10:54:45.870Z,63.46
2022-10-19T10:57:12.369Z,64.19
2022-10-19T10:59:41.737Z,62.51
2022-10-19T11:02:11.883Z,60.64
2022-10-19T11:04:38.531Z,63.00
2022-10-19T11:07:04.915Z,62.98
2022-10-19T11:09:31.336Z,62.90
2022-10-19T11:11:57.735Z,62.72
2022-10-19T11:14:24.107Z,62.47
2022-10-19T11:16:50.494Z,62.09
2022-10-19T11:19:16.942Z,62.05
2022-10-19T11:21:43.325Z,61.80
2022-10-19T11:24:09.705Z,61.95
2022-10-19T11:26:36.090Z,61.60
2022-10-19T11:29:02.472Z,61.53
2022-10-19T11:31:29.782Z,61.50
2022-10-19T11:33:56.244Z,61.28
2022-10-19T11:36:22.622Z,61.02
2022-10-19T11:38:49.006Z,60.90
2022-10-19T11:41:19.111Z,60.69
2022-10-19T11:43:45.805Z,60.85
2022-10-19T11:46:12.173Z,60.61
2022-10-19T11:48:40.384Z,60.41
2022-10-19T11:51:20.855Z,60.27
2022-10-19T11:53:48.338Z,60.24
2022-10-19T11:56:14.700Z,60.30
2022-10-19T11:58:41.067Z,60.38
2022-10-19T12:01:07.432Z,60.02
2022-10-19T12:03:33.804Z,59.70
2022-10-19T12:06:00.194Z,59.37
2022-10-19T12:08:26.623Z,59.67
2022-10-19T12:10:53.075Z,59.23
2022-10-19T12:13:19.442Z,59.66
2022-10-19T12:15:45.826Z,59.89
2022-10-19T12:18:12.209Z,59.75
2022-10-19T12:20:38.580Z,59.82
2022-10-19T12:23:04.949Z,59.79
2022-10-19T12:25:31.328Z,59.71
2022-10-19T12:27:57.693Z,59.87
2022-10-19T12:30:24.059Z,59.86
2022-10-19T12:32:53.538Z,59.74
2022-10-19T12:38:07.086Z,59.79
2022-10-19T12:40:33.464Z,59.81
2022-10-19T12:42:59.836Z,59.54
2022-10-19T12:45:26.213Z,59.62
2022-10-19T12:47:52.588Z,59.53
2022-10-19T12:53:05.287Z,59.26
2022-10-19T12:55:31.667Z,59.32
2022-10-19T12:57:58.045Z,59.34
2022-10-19T13:00:24.493Z,58.61
2022-10-19T13:02:50.902Z,58.65
2022-10-19T13:05:17.280Z,58.66
2022-10-19T13:07:43.681Z,58.53
2022-10-19T13:10:10.076Z,58.61
2022-10-19T13:12:36.676Z,58.37
2022-10-19T13:15:03.261Z,58.17
2022-10-19T13:17:33.287Z,58.12
2022-10-19T13:20:00.590Z,58.04
2022-10-19T13:22:26.967Z,58.11
2022-10-19T13:24:53.359Z,58.09
2022-10-19T13:27:19.735Z,58.20
2022-10-19T13:29:46.105Z,58.62
2022-10-19T13:32:12.497Z,58.07
2022-10-19T13:34:38.880Z,58.25
2022-10-19T13:37:05.250Z,58.04
2022-10-19T13:39:31.626Z,58.33
2022-10-19T13:41:58.018Z,58.08
2022-10-19T13:44:24.410Z,58.47
2022-10-19T13:46:50.779Z,58.47
2022-10-19T13:49:17.141Z,58.56
2022-10-19T13:51:43.529Z,58.52
2022-10-19T13:54:09.898Z,58.43
2022-10-19T13:59:22.624Z,58.04
2022-10-19T14:01:49.055Z,58.45
2022-10-19T14:04:15.476Z,58.06
2022-10-19T14:06:41.955Z,57.70
2022-10-19T14:09:08.412Z,57.61
2022-10-19T14:11:34.833Z,57.56
2022-10-19T14:14:01.212Z,57.43
2022-10-19T14:16:27.576Z,57.58
2022-10-19T14:18:53.960Z,57.55
2022-10-19T14:21:20.335Z,57.49
2022-10-19T14:26:33.000Z,57.41
2022-10-19T14:28:59.443Z,57.48
2022-10-19T14:31:25.828Z,57.42
2022-10-19T14:33:52.188Z,57.34
2022-10-19T14:36:18.558Z,57.40
2022-10-19T14:38:44.946Z,57.31
2022-10-19T14:41:11.313Z,57.17
2022-10-19T14:43:37.675Z,57.25
2022-10-19T14:46:04.059Z,57.38
2022-10-19T14:48:30.437Z,57.24
2022-10-19T14:50:56.816Z,57.10
2022-10-19T14:53:23.183Z,57.34
2022-10-19T14:55:49.559Z,57.18
2022-10-19T14:58:15.937Z,57.39
2022-10-19T15:00:42.318Z,57.86
2022-10-19T15:03:08.699Z,57.47
2022-10-19T15:05:35.162Z,57.42
2022-10-19T15:08:01.528Z,57.42
2022-10-19T15:10:29.439Z,57.58
2022-10-19T15:12:58.780Z,57.68
2022-10-19T15:15:25.153Z,58.50
2022-10-19T15:17:51.541Z,58.50
2022-10-19T15:20:17.918Z,58.52
2022-10-19T15:22:44.301Z,58.61
2022-10-19T15:25:10.664Z,58.12
2022-10-19T15:27:37.040Z,57.40
2022-10-19T15:30:03.425Z,57.11
2022-10-19T15:32:29.797Z,57.14
2022-10-19T15:34:56.182Z,57.11
2022-10-19T15:37:22.618Z,57.36
2022-10-19T15:39:49.011Z,57.11
2022-10-19T15:42:15.393Z,57.08
2022-10-19T15:44:41.781Z,57.11
2022-10-19T15:47:08.187Z,57.99
2022-10-19T15:49:34.576Z,58.10
2022-10-19T15:52:00.958Z,57.88
2022-10-19T15:54:27.338Z,57.84
2022-10-19T15:56:53.707Z,58.22
2022-10-19T15:59:20.074Z,58.11
2022-10-19T16:01:46.482Z,58.00
2022-10-19T16:04:12.881Z,58.34
2022-10-19T16:06:39.257Z,58.57
2022-10-19T16:09:05.708Z,57.78
2022-10-19T16:11:32.147Z,57.47
2022-10-19T16:13:58.519Z,57.69
2022-10-19T16:16:24.902Z,57.76
2022-10-19T16:18:51.278Z,58.02
2022-10-19T16:21:17.662Z,57.69
2022-10-19T16:23:44.047Z,57.57
2022-10-19T16:26:10.433Z,57.81
2022-10-19T16:28:36.815Z,58.00
2022-10-19T16:31:03.180Z,58.21
2022-10-19T16:33:29.543Z,60.19
2022-10-19T16:35:55.920Z,60.34
2022-10-19T16:38:22.288Z,59.10
2022-10-19T16:40:48.680Z,59.67
2022-10-19T16:43:15.062Z,59.41
2022-10-19T16:45:41.442Z,61.15
2022-10-19T16:48:07.816Z,62.10
2022-10-19T16:50:34.234Z,62.42
2022-10-19T16:53:00.661Z,60.35
2022-10-19T16:55:27.043Z,61.90
2022-10-19T16:57:53.417Z,62.03
2022-10-19T17:00:19.835Z,61.51
2022-10-19T17:02:46.625Z,61.23
2022-10-19T17:05:13.218Z,60.87
2022-10-19T17:07:39.610Z,61.08
2022-10-19T17:10:06.017Z,60.75
2022-10-19T17:12:32.636Z,60.42
2022-10-19T17:15:23.613Z,60.63
2022-10-19T17:17:45.626Z,60.43
2022-10-19T17:20:12.022Z,60.72
2022-10-19T17:22:38.392Z,60.92
2022-10-19T17:25:04.759Z,60.95
2022-10-19T17:27:31.128Z,60.54
2022-10-19T17:29:57.503Z,60.63
2022-10-19T17:32:23.886Z,60.41
2022-10-19T17:34:50.258Z,60.95
2022-10-19T17:37:16.640Z,60.59
2022-10-19T17:39:43.026Z,60.64
2022-10-19T17:42:09.396Z,60.50
2022-10-19T17:44:35.781Z,60.35
2022-10-19T17:47:02.152Z,59.97
2022-10-19T17:49:28.521Z,59.65
2022-10-19T17:51:54.899Z,59.71
2022-10-19T17:54:21.259Z,59.56
2022-10-19T17:56:47.651Z,59.69
2022-10-19T17:59:14.034Z,59.44
2022-10-19T18:01:40.419Z,59.32
2022-10-19T18:04:06.787Z,59.17
2022-10-19T18:06:33.162Z,59.11
2022-10-19T18:08:59.615Z,59.21
2022-10-19T18:11:26.042Z,59.03
2022-10-19T18:13:52.412Z,59.11
2022-10-19T18:16:18.789Z,59.11
2022-10-19T18:18:45.157Z,59.11
2022-10-19T18:21:11.530Z,59.10
2022-10-19T18:23:37.939Z,59.07
2022-10-19T18:26:04.322Z,59.02
2022-10-19T18:28:30.689Z,58.86
2022-10-19T18:30:57.125Z,58.90
2022-10-19T18:33:23.506Z,59.04
2022-10-19T18:35:49.874Z,58.98
2022-10-19T18:38:16.255Z,59.09
2022-10-19T18:40:42.656Z,58.92
2022-10-19T18:43:09.064Z,59.15
2022-10-19T18:45:35.445Z,58.97
2022-10-19T18:48:01.819Z,59.27
2022-10-19T18:50:28.185Z,59.03
2022-10-19T18:52:54.655Z,59.18
2022-10-19T18:55:21.020Z,58.92
2022-10-19T18:57:47.393Z,58.91
2022-10-19T19:00:13.780Z,58.83
2022-10-19T19:02:47.004Z,58.96
2022-10-19T19:05:13.818Z,59.16
2022-10-19T19:07:40.185Z,59.11
2022-10-19T19:10:06.564Z,59.02
2022-10-19T19:12:33.183Z,58.68
2022-10-19T19:14:59.743Z,58.78
2022-10-19T19:17:26.122Z,58.55
2022-10-19T19:19:52.499Z,58.60
2022-10-19T19:22:18.869Z,58.70
2022-10-19T19:24:45.232Z,58.55
2022-10-19T19:27:11.612Z,58.65
2022-10-19T19:29:37.997Z,58.44
2022-10-19T19:32:04.361Z,58.21
2022-10-19T19:34:30.737Z,58.39
2022-10-19T19:36:57.110Z,58.74
2022-10-19T19:39:23.483Z,58.49
2022-10-19T19:41:49.901Z,58.95
2022-10-19T19:44:16.302Z,58.56
2022-10-19T19:46:42.684Z,58.92
2022-10-19T19:49:09.046Z,58.63
2022-10-19T19:51:35.430Z,58.60
2022-10-19T19:54:01.851Z,58.79
2022-10-19T19:56:28.220Z,58.71
2022-10-19T19:58:54.603Z,58.33
2022-10-19T20:01:21.024Z,59.20
2022-10-19T20:03:47.449Z,58.65
2022-10-19T20:06:13.824Z,58.47
2022-10-19T20:08:40.238Z,58.49
2022-10-19T20:11:06.637Z,58.68
2022-10-19T20:13:33.025Z,59.40
2022-10-19T20:15:59.641Z,59.16
2022-10-19T20:18:26.065Z,58.63
2022-10-19T20:20:52.442Z,58.41
2022-10-19T20:23:18.828Z,58.69
2022-10-19T20:25:45.206Z,58.80
2022-10-19T20:28:11.669Z,58.57
2022-10-19T20:30:38.030Z,58.50
2022-10-19T20:33:04.400Z,58.85
2022-10-19T20:35:30.792Z,58.73
2022-10-19T20:37:57.152Z,58.33
2022-10-19T20:40:23.596Z,58.27
2022-10-19T20:42:50.040Z,58.43
2022-10-19T20:45:16.421Z,58.38
2022-10-19T20:47:42.802Z,58.07
2022-10-19T20:50:09.188Z,58.08
2022-10-19T20:52:35.807Z,58.24
2022-10-19T20:55:05.244Z,58.17
2022-10-19T20:57:31.623Z,58.40
2022-10-19T20:59:57.997Z,58.33
2022-10-19T21:02:24.382Z,57.96
2022-10-19T21:04:50.767Z,58.13
2022-10-19T21:07:17.137Z,58.02
2022-10-19T21:09:43.513Z,57.89
2022-10-19T21:12:09.897Z,58.02
2022-10-19T21:14:36.260Z,57.98
2022-10-19T21:17:02.651Z,57.94
2022-10-19T21:19:29.021Z,58.21
2022-10-19T21:21:55.399Z,58.22
2022-10-19T21:24:21.779Z,58.13
2022-10-19T21:26:48.188Z,58.41
2022-10-19T21:29:14.640Z,58.52
2022-10-19T21:31:43.003Z,58.41
2022-10-19T21:34:11.524Z,58.67
2022-10-19T21:36:37.883Z,58.76
2022-10-19T21:39:04.257Z,58.94
2022-10-19T21:41:30.634Z,58.89
2022-10-19T21:43:57.008Z,58.86
2022-10-19T21:46:23.387Z,58.79
2022-10-19T21:48:49.764Z,58.83
2022-10-19T21:51:16.124Z,58.67
2022-10-19T21:53:42.501Z,58.99
2022-10-19T21:56:08.879Z,58.54
2022-10-19T21:58:35.269Z,58.76
2022-10-19T22:01:01.632Z,58.64
2022-10-19T22:03:27.996Z,58.64
2022-10-19T22:05:54.382Z,58.59
2022-10-19T22:08:20.791Z,58.72
2022-10-19T22:10:47.174Z,58.88
2022-10-19T22:13:13.548Z,58.88
2022-10-19T22:15:39.927Z,59.12
2022-10-19T22:18:06.288Z,59.33
2022-10-19T22:20:32.653Z,59.58
2022-10-19T22:22:59.035Z,59.24
2022-10-19T22:25:25.397Z,59.42
2022-10-19T22:27:51.792Z,59.41
2022-10-19T22:30:18.148Z,59.79
2022-10-19T22:32:44.507Z,59.54
2022-10-19T22:35:10.885Z,59.27
2022-10-19T22:37:37.245Z,59.39
2022-10-19T22:40:03.626Z,59.24
2022-10-19T22:42:30.004Z,59.54
2022-10-19T22:44:56.375Z,59.48
2022-10-19T22:47:22.762Z,59.77
2022-10-19T22:49:49.134Z,59.34
2022-10-19T22:52:15.508Z,59.38
2022-10-19T22:54:41.872Z,59.55
2022-10-19T22:57:08.244Z,59.27
2022-10-19T22:59:34.617Z,59.01
2022-10-19T23:02:01.042Z,59.05
2022-10-19T23:04:27.451Z,59.13
2022-10-19T23:06:53.830Z,59.06
2022-10-19T23:09:20.203Z,58.58
2022-10-19T23:11:46.567Z,59.18
2022-10-19T23:14:12.923Z,59.18
2022-10-19T23:16:39.300Z,59.17
2022-10-19T23:19:05.676Z,59.38
2022-10-19T23:21:32.141Z,59.44
2022-10-19T23:23:58.513Z,59.70
2022-10-19T23:26:24.879Z,59.21
2022-10-19T23:28:51.263Z,59.12
2022-10-19T23:31:17.641Z,58.82
2022-10-19T23:33:44.008Z,58.85
2022-10-19T23:36:10.371Z,58.84
2022-10-19T23:38:36.750Z,58.85
2022-10-19T23:41:03.123Z,58.82
2022-10-19T23:43:29.521Z,58.97
2022-10-19T23:45:55.921Z,58.98
2022-10-19T23:48:22.306Z,58.88
2022-10-19T23:50:48.682Z,59.19
2022-10-19T23:53:15.053Z,58.92
2022-10-19T23:55:41.416Z,58.76
2022-10-19T23:58:07.802Z,59.19
